Time;durP1;ratioP1;P1;durP2;ratioP2;P2;SDS_P1;SDS_P2;PMS_P1;PMS_P2;Temp;Humidity;BMP_temperature;BMP_pressure;BME280_temperature;BME280_humidity;BME280_pressure;Samples;Min_cycle;Max_cycle;Signal;HPM_P1;HPM_P2
2024/01/26 00:00:28;;;;;;;67.13;43.17;;;;;;;;;;6234612;28;24828;-74
2024/01/26 00:03:30;;;;;;;63.65;41.05;;;;;;;;;;6236359;28;24427;-74
2024/01/26 00:06:32;;;;;;;66.43;42.23;;;;;;;;;;6239728;28;24432;-74
2024/01/26 00:09:34;;;;;;;65.07;41.63;;;;;;;;;;6240667;28;24452;-74
2024/01/26 00:12:37;;;;;;;63.88;41.35;;;;;;;;;;6241397;28;24701;-74
2024/01/26 00:15:40;;;;;;;64.53;41.60;;;;;;;;;;6242102;28;24424;-74
2024/01/26 00:18:41;;;;;;;64.53;42.13;;;;;;;;;;6236114;28;24436;-74
2024/01/26 00:21:43;;;;;;;64.80;41.53;;;;;;;;;;6239930;28;24780;-74
2024/01/26 00:24:46;;;;;;;62.75;42.08;;;;;;;;;;6242585;28;24871;-74
2024/01/26 00:27:49;;;;;;;62.80;41.60;;;;;;;;;;6241022;28;24485;-74
2024/01/26 00:30:51;;;;;;;62.78;42.08;;;;;;;;;;6243529;28;24424;-74
2024/01/26 00:33:52;;;;;;;63.15;41.83;;;;;;;;;;6237223;28;24431;-74
2024/01/26 00:36:54;;;;;;;64.70;41.60;;;;;;;;;;6243602;28;24431;-74
2024/01/26 00:39:55;;;;;;;69.05;43.45;;;;;;;;;;6240754;28;24541;-73
2024/01/26 00:42:58;;;;;;;64.15;42.15;;;;;;;;;;6238670;28;24903;-74
2024/01/26 00:46:00;;;;;;;62.13;41.67;;;;;;;;;;6241584;28;24439;-74
2024/01/26 00:49:02;;;;;;;68.40;43.75;;;;;;;;;;6245210;28;24447;-75
2024/01/26 00:52:03;;;;;;;110.65;64.40;;;;;;;;;;6249783;28;24432;-74
2024/01/26 00:55:05;;;;;;;103.63;60.53;;;;;;;;;;6249683;28;24432;-74
2024/01/26 00:58:08;;;;;;;129.50;70.25;;;;;;;;;;6248816;28;24704;-75
2024/01/26 01:01:10;;;;;;;118.77;67.27;;;;;;;;;;6246355;28;24440;-74
2024/01/26 01:04:11;;;;;;;190.52;101.13;;;;;;;;;;6250706;28;24606;-76
2024/01/26 01:07:13;;;;;;;126.70;72.17;;;;;;;;;;6245243;28;24527;-74
2024/01/26 01:10:15;;;;;;;110.23;61.80;;;;;;;;;;6241200;28;25099;-74
2024/01/26 01:13:18;;;;;;;86.93;53.13;;;;;;;;;;6241325;28;24471;-75
2024/01/26 01:16:20;;;;;;;84.72;54.72;;;;;;;;;;6242017;28;24408;-74
2024/01/26 01:19:22;;;;;;;91.18;57.75;;;;;;;;;;6242460;28;24438;-74
2024/01/26 01:22:24;;;;;;;85.38;54.60;;;;;;;;;;6244257;28;24474;-74
2024/01/26 01:25:26;;;;;;;85.80;53.95;;;;;;;;;;6245171;28;24800;-73
2024/01/26 01:28:29;;;;;;;81.88;51.63;;;;;;;;;;6243645;28;24407;-74
2024/01/26 01:31:30;;;;;;;82.85;53.47;;;;;;;;;;6242151;28;24462;-74
2024/01/26 01:34:32;;;;;;;98.03;61.63;;;;;;;;;;6244210;28;24418;-74
2024/01/26 01:37:35;;;;;;;91.45;57.60;;;;;;;;;;6246624;28;24415;-73
2024/01/26 01:40:36;;;;;;;91.78;56.78;;;;;;;;;;6247167;28;24809;-73
2024/01/26 01:43:39;;;;;;;93.30;55.42;;;;;;;;;;6249255;28;24515;-74
2024/01/26 01:46:41;;;;;;;85.00;54.10;;;;;;;;;;6249304;28;24843;-74
2024/01/26 01:49:43;;;;;;;85.00;53.40;;;;;;;;;;6241367;28;24801;-75
2024/01/26 01:52:46;;;;;;;83.53;53.93;;;;;;;;;;6241954;28;24824;-72
2024/01/26 01:55:47;;;;;;;85.60;54.22;;;;;;;;;;6242570;28;24420;-74
2024/01/26 01:58:51;;;;;;;87.93;56.15;;;;;;;;;;6243148;28;24478;-74
2024/01/26 02:01:53;;;;;;;87.15;56.35;;;;;;;;;;6240777;28;24809;-74
2024/01/26 02:04:54;;;;;;;81.95;54.55;;;;;;;;;;6242287;28;24420;-74
2024/01/26 02:07:56;;;;;;;84.50;54.85;;;;;;;;;;6241788;28;24832;-74
2024/01/26 02:10:57;;;;;;;88.05;54.92;;;;;;;;;;6245542;28;24438;-74
2024/01/26 02:14:00;;;;;;;85.85;54.35;;;;;;;;;;6245178;28;24861;-73
2024/01/26 02:17:02;;;;;;;87.05;55.72;;;;;;;;;;6245888;28;24436;-78
2024/01/26 02:20:04;;;;;;;86.25;56.13;;;;;;;;;;6240264;28;24487;-78
2024/01/26 02:23:07;;;;;;;92.20;58.78;;;;;;;;;;6244651;28;24423;-79
2024/01/26 02:26:11;;;;;;;89.07;59.00;;;;;;;;;;6242825;28;24711;-78
2024/01/26 02:29:12;;;;;;;92.13;59.03;;;;;;;;;;6246676;28;24422;-78
2024/01/26 02:32:14;;;;;;;94.15;58.75;;;;;;;;;;6239515;28;24443;-79
2024/01/26 02:35:16;;;;;;;91.80;57.83;;;;;;;;;;6239982;28;24427;-79
2024/01/26 02:38:17;;;;;;;89.83;58.30;;;;;;;;;;6240887;28;24498;-79
2024/01/26 02:41:20;;;;;;;90.20;57.45;;;;;;;;;;6239115;28;24428;-78
2024/01/26 02:44:22;;;;;;;88.20;57.33;;;;;;;;;;6240827;28;24434;-79
2024/01/26 02:47:24;;;;;;;92.40;58.05;;;;;;;;;;6239767;28;24420;-80
2024/01/26 02:50:25;;;;;;;92.45;58.80;;;;;;;;;;6241203;28;24425;-80
2024/01/26 02:53:27;;;;;;;91.13;58.28;;;;;;;;;;6239319;28;24428;-79
2024/01/26 02:56:30;;;;;;;88.05;58.92;;;;;;;;;;6239810;28;24435;-79
2024/01/26 02:59:31;;;;;;;89.53;56.55;;;;;;;;;;6238863;28;24435;-80
2024/01/26 03:02:33;;;;;;;86.97;57.80;;;;;;;;;;6243090;28;24766;-78
2024/01/26 03:05:34;;;;;;;91.20;58.53;;;;;;;;;;6238414;28;24432;-78
2024/01/26 03:08:36;;;;;;;92.78;58.78;;;;;;;;;;6238994;28;24424;-79
2024/01/26 03:11:40;;;;;;;92.23;59.53;;;;;;;;;;6240240;28;24436;-79
2024/01/26 03:14:41;;;;;;;90.97;58.42;;;;;;;;;;6239895;28;24435;-78
2024/01/26 03:17:43;;;;;;;89.60;60.17;;;;;;;;;;6240569;28;24436;-79
2024/01/26 03:20:45;;;;;;;95.85;61.75;;;;;;;;;;6234340;28;24432;-78
2024/01/26 03:23:46;;;;;;;94.97;61.88;;;;;;;;;;6240997;28;24470;-78
2024/01/26 03:26:50;;;;;;;96.57;62.15;;;;;;;;;;6238680;28;24489;-74
2024/01/26 03:29:51;;;;;;;93.00;60.88;;;;;;;;;;6236556;28;24868;-74
2024/01/26 03:32:53;;;;;;;98.72;61.88;;;;;;;;;;6237093;28;24463;-74
2024/01/26 03:35:55;;;;;;;95.78;62.47;;;;;;;;;;6236446;28;24432;-73
2024/01/26 03:38:56;;;;;;;98.00;61.67;;;;;;;;;;6239209;28;24435;-73
2024/01/26 03:41:59;;;;;;;97.47;61.17;;;;;;;;;;6239279;28;24430;-73
2024/01/26 03:45:01;;;;;;;91.80;60.42;;;;;;;;;;6240162;28;24420;-73
2024/01/26 03:48:02;;;;;;;92.95;59.25;;;;;;;;;;6239228;28;24454;-73
2024/01/26 03:51:04;;;;;;;93.55;59.90;;;;;;;;;;6235826;28;24423;-73
2024/01/26 03:54:05;;;;;;;97.13;61.22;;;;;;;;;;6239475;28;24431;-73
2024/01/26 03:57:08;;;;;;;98.07;59.90;;;;;;;;;;6237436;28;24436;-73
2024/01/26 04:00:10;;;;;;;95.38;59.83;;;;;;;;;;6237514;28;24439;-74
2024/01/26 04:03:12;;;;;;;95.00;59.90;;;;;;;;;;6236050;28;24431;-73
2024/01/26 04:06:13;;;;;;;92.95;58.40;;;;;;;;;;6271348;28;24837;-73
2024/01/26 04:09:15;;;;;;;97.78;60.55;;;;;;;;;;6239071;28;24490;-73
2024/01/26 04:12:18;;;;;;;95.13;59.60;;;;;;;;;;6236994;28;24471;-73
2024/01/26 04:15:19;;;;;;;93.53;59.07;;;;;;;;;;6240249;28;24435;-73
2024/01/26 04:18:21;;;;;;;92.93;59.40;;;;;;;;;;6240625;28;24599;-73
2024/01/26 04:21:22;;;;;;;96.00;59.75;;;;;;;;;;6238555;28;24413;-74
2024/01/26 04:24:24;;;;;;;93.97;58.33;;;;;;;;;;6234871;28;24423;-73
2024/01/26 04:27:27;;;;;;;93.85;57.90;;;;;;;;;;6241099;28;24524;-73
2024/01/26 04:30:29;;;;;;;91.78;57.75;;;;;;;;;;6244754;28;24420;-74
2024/01/26 04:33:30;;;;;;;91.75;58.17;;;;;;;;;;6241072;28;24610;-73
2024/01/26 04:36:32;;;;;;;91.43;57.67;;;;;;;;;;6244086;28;24440;-74
2024/01/26 04:39:33;;;;;;;91.30;57.17;;;;;;;;;;6273156;28;24804;-73
2024/01/26 04:42:38;;;;;;;93.18;57.35;;;;;;;;;;6238939;28;24483;-74
2024/01/26 04:45:39;;;;;;;91.50;57.70;;;;;;;;;;6241954;28;24429;-73
2024/01/26 04:48:41;;;;;;;94.72;58.28;;;;;;;;;;6244377;28;24757;-73
2024/01/26 04:51:42;;;;;;;97.45;59.38;;;;;;;;;;6241344;28;24477;-73
2024/01/26 04:54:46;;;;;;;94.53;58.55;;;;;;;;;;6243134;28;24424;-73
2024/01/26 04:57:49;;;;;;;89.85;57.35;;;;;;;;;;6244071;28;24499;-72
2024/01/26 05:00:51;;;;;;;89.65;57.10;;;;;;;;;;6244948;28;24474;-72
2024/01/26 05:03:52;;;;;;;89.32;57.25;;;;;;;;;;6243352;28;24427;-73
2024/01/26 05:06:55;;;;;;;92.63;57.75;;;;;;;;;;6242080;28;24439;-73
2024/01/26 05:09:57;;;;;;;90.40;56.25;;;;;;;;;;6240764;28;24458;-73
2024/01/26 05:13:00;;;;;;;94.88;57.40;;;;;;;;;;6242602;28;24428;-73
2024/01/26 05:16:01;;;;;;;90.57;57.10;;;;;;;;;;6239605;28;24519;-74
2024/01/26 05:19:03;;;;;;;92.53;57.20;;;;;;;;;;6243171;28;24512;-74
2024/01/26 05:22:05;;;;;;;90.57;56.83;;;;;;;;;;6240845;28;24448;-74
2024/01/26 05:25:06;;;;;;;92.37;58.03;;;;;;;;;;6243259;28;24875;-73
2024/01/26 05:28:12;;;;;;;94.90;59.20;;;;;;;;;;6240034;28;24448;-73
2024/01/26 05:31:13;;;;;;;93.72;57.58;;;;;;;;;;6241159;28;24470;-74
2024/01/26 05:34:18;;;;;;;91.15;57.28;;;;;;;;;;6239448;28;24650;-73
2024/01/26 05:37:19;;;;;;;87.83;55.30;;;;;;;;;;6239898;28;24517;-74
2024/01/26 05:40:21;;;;;;;86.65;53.80;;;;;;;;;;6240869;28;24789;-74
2024/01/26 05:43:24;;;;;;;87.78;53.47;;;;;;;;;;6242392;28;24600;-73
2024/01/26 05:46:25;;;;;;;86.18;52.95;;;;;;;;;;6242457;28;24615;-73
2024/01/26 05:49:27;;;;;;;85.30;52.40;;;;;;;;;;6243673;28;24603;-73
2024/01/26 05:52:28;;;;;;;85.47;53.55;;;;;;;;;;6243348;28;24649;-73
2024/01/26 05:55:30;;;;;;;85.50;52.93;;;;;;;;;;6241268;28;24489;-73
2024/01/26 05:58:33;;;;;;;82.53;52.00;;;;;;;;;;6245224;28;24547;-73
2024/01/26 06:01:35;;;;;;;82.07;52.58;;;;;;;;;;6242425;28;24462;-73
2024/01/26 06:04:36;;;;;;;82.00;52.58;;;;;;;;;;6241277;28;24499;-73
2024/01/26 06:07:38;;;;;;;82.17;53.03;;;;;;;;;;6240556;28;24443;-72
2024/01/26 06:10:40;;;;;;;86.47;52.33;;;;;;;;;;6243336;28;24504;-73
2024/01/26 06:13:43;;;;;;;81.88;51.90;;;;;;;;;;6239991;28;24413;-74
2024/01/26 06:16:48;;;;;;;82.55;53.00;;;;;;;;;;6240990;28;24416;-74
2024/01/26 06:19:50;;;;;;;83.45;52.83;;;;;;;;;;6240286;28;24855;-75
2024/01/26 06:22:52;;;;;;;85.28;52.95;;;;;;;;;;6240162;28;24411;-74
2024/01/26 06:25:54;;;;;;;86.75;53.58;;;;;;;;;;6241572;28;24808;-73
2024/01/26 06:28:59;;;;;;;82.18;52.50;;;;;;;;;;6237791;28;24854;-74
2024/01/26 06:32:01;;;;;;;83.32;52.53;;;;;;;;;;6237389;28;24423;-73
2024/01/26 06:35:02;;;;;;;85.35;53.90;;;;;;;;;;6240036;28;24443;-73
2024/01/26 06:38:04;;;;;;;87.72;53.22;;;;;;;;;;6240424;28;24420;-73
2024/01/26 06:41:05;;;;;;;83.97;52.88;;;;;;;;;;6242346;28;24432;-74
2024/01/26 06:44:08;;;;;;;89.40;54.22;;;;;;;;;;6243167;28;24471;-74
2024/01/26 06:47:10;;;;;;;85.05;53.75;;;;;;;;;;6239465;28;24408;-74
2024/01/26 06:50:12;;;;;;;89.05;54.13;;;;;;;;;;6239585;28;24415;-74
2024/01/26 06:53:13;;;;;;;81.93;51.87;;;;;;;;;;6270383;28;24480;-74
2024/01/26 06:56:15;;;;;;;83.10;51.90;;;;;;;;;;6241707;28;24504;-74
2024/01/26 06:59:18;;;;;;;76.55;49.45;;;;;;;;;;6240163;28;24416;-74
2024/01/26 07:02:19;;;;;;;79.97;50.63;;;;;;;;;;6239248;28;24833;-74
2024/01/26 07:05:21;;;;;;;75.95;49.55;;;;;;;;;;6241707;28;24431;-74
2024/01/26 07:08:23;;;;;;;77.72;48.83;;;;;;;;;;6239358;28;24503;-74
2024/01/26 07:11:25;;;;;;;79.32;48.75;;;;;;;;;;6237202;28;24431;-75
2024/01/26 07:14:28;;;;;;;73.30;49.05;;;;;;;;;;6239101;28;24821;-73
2024/01/26 07:17:30;;;;;;;76.22;49.20;;;;;;;;;;6234385;28;24443;-74
2024/01/26 07:20:32;;;;;;;78.45;49.15;;;;;;;;;;6234772;28;24428;-74
2024/01/26 07:23:34;;;;;;;78.57;50.17;;;;;;;;;;6235299;28;24424;-73
2024/01/26 07:26:35;;;;;;;76.82;49.10;;;;;;;;;;6237815;28;24690;-75
2024/01/26 07:29:38;;;;;;;80.43;50.03;;;;;;;;;;6237317;28;24478;-74
2024/01/26 07:32:40;;;;;;;78.18;48.65;;;;;;;;;;6239098;28;24841;-75
2024/01/26 07:35:41;;;;;;;74.10;48.67;;;;;;;;;;6239285;28;24455;-74
2024/01/26 07:38:43;;;;;;;76.25;48.63;;;;;;;;;;6237517;28;24425;-74
2024/01/26 07:41:45;;;;;;;80.60;50.30;;;;;;;;;;6239454;28;24563;-75
2024/01/26 07:44:48;;;;;;;81.68;50.88;;;;;;;;;;6259636;28;24423;-74
2024/01/26 07:47:50;;;;;;;76.80;49.83;;;;;;;;;;6241540;28;24696;-74
2024/01/26 07:50:52;;;;;;;78.82;49.72;;;;;;;;;;6237603;28;24825;-74
2024/01/26 07:53:53;;;;;;;81.10;49.58;;;;;;;;;;6239110;28;24822;-73
2024/01/26 07:56:56;;;;;;;75.65;48.97;;;;;;;;;;6236425;28;24435;-76
2024/01/26 07:59:59;;;;;;;74.47;48.67;;;;;;;;;;6239431;28;24556;-74
2024/01/26 08:03:00;;;;;;;74.00;48.13;;;;;;;;;;6242868;28;24431;-74
2024/01/26 08:06:02;;;;;;;75.55;49.03;;;;;;;;;;6244666;28;24427;-74
2024/01/26 08:09:08;;;;;;;84.50;49.67;;;;;;;;;;6274997;28;24431;-75
2024/01/26 08:12:10;;;;;;;76.65;49.35;;;;;;;;;;6245054;28;24812;-74
2024/01/26 08:15:13;;;;;;;73.75;49.83;;;;;;;;;;6239351;28;24456;-74
2024/01/26 08:18:15;;;;;;;76.87;50.70;;;;;;;;;;6241139;28;24435;-74
2024/01/26 08:21:18;;;;;;;76.63;49.73;;;;;;;;;;6242449;28;24436;-75
2024/01/26 08:24:19;;;;;;;77.07;50.23;;;;;;;;;;6244584;28;24510;-75
2024/01/26 08:27:22;;;;;;;76.45;51.42;;;;;;;;;;6242664;28;24462;-75
2024/01/26 08:30:25;;;;;;;74.80;50.50;;;;;;;;;;6244114;28;24607;-74
2024/01/26 08:33:28;;;;;;;74.78;49.58;;;;;;;;;;6242988;28;24435;-74
2024/01/26 08:36:29;;;;;;;75.07;49.53;;;;;;;;;;6241224;28;24864;-74
2024/01/26 08:39:31;;;;;;;68.68;47.70;;;;;;;;;;6241273;28;24431;-73
2024/01/26 08:42:32;;;;;;;74.43;49.88;;;;;;;;;;6240110;28;24425;-74
2024/01/26 08:45:35;;;;;;;71.22;48.55;;;;;;;;;;6241510;28;24431;-74
2024/01/26 08:48:37;;;;;;;75.78;49.40;;;;;;;;;;6239640;28;24440;-72
2024/01/26 08:51:38;;;;;;;71.23;49.60;;;;;;;;;;6241341;28;24463;-73
2024/01/26 08:54:40;;;;;;;75.22;50.55;;;;;;;;;;6242456;28;24466;-75
2024/01/26 08:57:43;;;;;;;69.47;49.17;;;;;;;;;;6246287;28;24426;-74
2024/01/26 09:00:46;;;;;;;73.13;49.17;;;;;;;;;;6240268;28;24690;-74
2024/01/26 09:03:50;;;;;;;69.40;48.50;;;;;;;;;;6238383;28;24428;-75
2024/01/26 09:06:51;;;;;;;70.88;47.83;;;;;;;;;;6240413;28;24839;-74
2024/01/26 09:09:53;;;;;;;69.30;48.40;;;;;;;;;;6242867;28;24425;-75
2024/01/26 09:12:54;;;;;;;67.20;47.47;;;;;;;;;;6243484;28;24612;-74
2024/01/26 09:15:58;;;;;;;68.43;48.85;;;;;;;;;;6239805;28;24439;-74
2024/01/26 09:18:59;;;;;;;74.50;50.85;;;;;;;;;;6224128;28;24432;-74
2024/01/26 09:22:03;;;;;;;70.05;49.50;;;;;;;;;;6239277;28;24451;-73
2024/01/26 09:25:04;;;;;;;71.13;49.30;;;;;;;;;;6240573;28;24443;-73
2024/01/26 09:28:06;;;;;;;71.15;49.90;;;;;;;;;;6241810;28;24433;-74
2024/01/26 09:31:12;;;;;;;68.28;47.67;;;;;;;;;;6241449;28;24446;-74
2024/01/26 09:34:13;;;;;;;67.35;48.13;;;;;;;;;;6240782;28;24512;-74
2024/01/26 09:37:15;;;;;;;67.95;48.50;;;;;;;;;;6244362;28;24508;-75
2024/01/26 09:40:17;;;;;;;68.03;49.67;;;;;;;;;;6243400;28;24456;-74
2024/01/26 09:43:18;;;;;;;66.80;49.85;;;;;;;;;;6240639;28;24499;-74
2024/01/26 09:46:22;;;;;;;68.45;51.15;;;;;;;;;;6241899;28;24420;-74
2024/01/26 09:49:26;;;;;;;76.63;55.30;;;;;;;;;;6245659;28;24427;-74
2024/01/26 09:52:27;;;;;;;82.80;61.35;;;;;;;;;;6239233;28;24412;-74
2024/01/26 09:55:29;;;;;;;78.72;56.70;;;;;;;;;;6241098;28;24693;-75
2024/01/26 09:58:31;;;;;;;73.40;53.42;;;;;;;;;;6242928;28;24840;-74
2024/01/26 10:01:34;;;;;;;77.82;57.20;;;;;;;;;;6241302;28;24412;-75
2024/01/26 10:04:36;;;;;;;74.45;55.67;;;;;;;;;;6240044;28;24420;-74
2024/01/26 10:07:38;;;;;;;71.97;54.22;;;;;;;;;;6241850;28;24610;-74
2024/01/26 10:10:40;;;;;;;71.90;54.25;;;;;;;;;;6240519;28;24490;-73
2024/01/26 10:13:42;;;;;;;71.40;53.90;;;;;;;;;;6239389;28;24900;-73
2024/01/26 10:16:53;;;;;;;72.95;54.85;;;;;;;;;;6242080;28;24433;-73
2024/01/26 10:20:07;;;;;;;68.35;52.65;;;;;;;;;;6260295;28;24435;-74
2024/01/26 10:23:09;;;;;;;80.93;58.60;;;;;;;;;;6238878;28;24427;-73
2024/01/26 10:26:11;;;;;;;76.55;57.08;;;;;;;;;;6244183;28;24430;-74
2024/01/26 10:29:13;;;;;;;76.68;58.38;;;;;;;;;;6241731;28;25045;-74
2024/01/26 10:32:16;;;;;;;80.50;59.85;;;;;;;;;;6241189;28;24713;-74
2024/01/26 10:35:19;;;;;;;82.03;59.38;;;;;;;;;;6242121;28;24832;-74
2024/01/26 10:38:20;;;;;;;79.07;59.40;;;;;;;;;;6239683;28;24490;-74
2024/01/26 10:41:23;;;;;;;86.15;61.78;;;;;;;;;;6255562;28;24528;-74
2024/01/26 10:44:25;;;;;;;81.95;59.53;;;;;;;;;;6246626;28;24421;-74
2024/01/26 10:47:28;;;;;;;82.97;59.50;;;;;;;;;;6239497;28;24427;-74
2024/01/26 10:50:30;;;;;;;81.50;59.53;;;;;;;;;;6251750;28;24873;-74
2024/01/26 10:53:32;;;;;;;88.35;63.65;;;;;;;;;;6246950;28;24435;-74
2024/01/26 10:56:34;;;;;;;84.87;62.87;;;;;;;;;;6235554;28;24825;-74
2024/01/26 10:59:36;;;;;;;83.30;60.92;;;;;;;;;;6239977;28;24424;-75
2024/01/26 11:02:39;;;;;;;90.25;64.88;;;;;;;;;;6239634;28;24666;-74
2024/01/26 11:05:41;;;;;;;88.60;65.63;;;;;;;;;;6239263;28;24431;-74
2024/01/26 11:08:42;;;;;;;90.13;66.63;;;;;;;;;;6240937;28;24425;-74
2024/01/26 11:11:51;;;;;;;90.77;64.77;;;;;;;;;;6240668;28;24427;-74
2024/01/26 11:15:03;;;;;;;92.43;65.55;;;;;;;;;;6239892;28;24896;-74
2024/01/26 11:18:06;;;;;;;88.37;64.03;;;;;;;;;;6239564;28;24438;-74
2024/01/26 11:21:09;;;;;;;85.65;61.25;;;;;;;;;;6239632;28;24467;-75
2024/01/26 11:24:14;;;;;;;86.15;63.15;;;;;;;;;;6234434;28;24900;-74
2024/01/26 11:27:16;;;;;;;83.18;61.20;;;;;;;;;;6238942;28;24448;-75
2024/01/26 11:30:27;;;;;;;82.45;61.05;;;;;;;;;;6270146;28;24439;-75
2024/01/26 11:33:37;;;;;;;87.45;63.92;;;;;;;;;;6239803;28;24432;-75
2024/01/26 11:36:39;;;;;;;87.65;65.40;;;;;;;;;;6238859;28;24501;-74
2024/01/26 11:39:41;;;;;;;100.13;69.65;;;;;;;;;;6236946;28;24532;-76
2024/01/26 11:42:44;;;;;;;98.77;69.77;;;;;;;;;;6237857;28;24432;-75
2024/01/26 11:45:47;;;;;;;93.83;68.17;;;;;;;;;;6237737;28;24520;-74
2024/01/26 11:48:51;;;;;;;96.43;70.87;;;;;;;;;;6239966;28;24529;-74
2024/01/26 11:51:55;;;;;;;98.45;68.47;;;;;;;;;;6238741;28;24635;-74
2024/01/26 11:54:57;;;;;;;95.90;68.07;;;;;;;;;;6238681;28;24424;-74
2024/01/26 11:57:58;;;;;;;100.85;70.68;;;;;;;;;;6242242;28;24423;-74
2024/01/26 12:01:00;;;;;;;97.07;67.97;;;;;;;;;;6262132;28;24435;-74
2024/01/26 12:04:04;;;;;;;95.57;68.25;;;;;;;;;;6263169;28;24879;-74
2024/01/26 12:07:06;;;;;;;93.97;68.27;;;;;;;;;;6266882;28;24917;-74
2024/01/26 12:10:13;;;;;;;95.82;69.30;;;;;;;;;;6260429;28;24494;-74
2024/01/26 12:13:15;;;;;;;98.50;70.10;;;;;;;;;;6261750;28;24498;-74
2024/01/26 12:16:21;;;;;;;97.43;68.63;;;;;;;;;;6264325;28;24816;-74
2024/01/26 12:19:27;;;;;;;96.43;69.38;;;;;;;;;;6263391;28;24490;-74
2024/01/26 12:22:30;;;;;;;91.87;66.37;;;;;;;;;;6264088;28;24429;-74
2024/01/26 12:25:31;;;;;;;90.85;66.90;;;;;;;;;;6287958;28;24431;-75
2024/01/26 12:28:35;;;;;;;88.82;64.15;;;;;;;;;;6265982;28;24618;-74
2024/01/26 12:31:37;;;;;;;88.15;63.28;;;;;;;;;;6264871;28;24416;-74
2024/01/26 12:34:41;;;;;;;84.80;62.60;;;;;;;;;;6296367;28;24925;-74
2024/01/26 12:37:44;;;;;;;92.85;66.47;;;;;;;;;;6264318;28;24413;-74
2024/01/26 12:40:47;;;;;;;90.65;65.05;;;;;;;;;;6260943;28;24656;-74
2024/01/26 12:43:48;;;;;;;95.32;67.97;;;;;;;;;;6268315;28;24426;-74
2024/01/26 12:46:50;;;;;;;87.65;63.30;;;;;;;;;;6267730;28;24485;-74
2024/01/26 12:49:55;;;;;;;88.47;63.50;;;;;;;;;;6267676;28;24477;-74
2024/01/26 12:52:56;;;;;;;97.85;67.88;;;;;;;;;;6269468;28;24439;-74
2024/01/26 12:55:58;;;;;;;90.80;65.38;;;;;;;;;;6268513;28;24871;-74
2024/01/26 12:59:00;;;;;;;95.75;68.10;;;;;;;;;;6266086;28;24423;-75
2024/01/26 13:02:01;;;;;;;101.22;70.30;;;;;;;;;;6270381;28;24407;-74
2024/01/26 13:05:05;;;;;;;108.65;75.82;;;;;;;;;;6270030;28;24458;-75
2024/01/26 13:08:07;;;;;;;135.00;88.88;;;;;;;;;;6265938;28;24423;-74
2024/01/26 13:11:10;;;;;;;130.23;86.50;;;;;;;;;;6271420;28;24837;-74
2024/01/26 13:14:11;;;;;;;110.40;75.97;;;;;;;;;;6270835;28;24579;-75
2024/01/26 13:17:13;;;;;;;110.17;75.37;;;;;;;;;;6268302;28;24440;-74
2024/01/26 13:20:18;;;;;;;114.20;77.65;;;;;;;;;;6269814;28;24606;-73
2024/01/26 13:23:20;;;;;;;108.77;76.97;;;;;;;;;;6269626;28;24424;-72
2024/01/26 13:26:22;;;;;;;114.20;75.70;;;;;;;;;;6265947;28;24501;-74
2024/01/26 13:29:25;;;;;;;100.67;68.53;;;;;;;;;;6302904;28;24618;-74
2024/01/26 13:32:26;;;;;;;97.80;68.60;;;;;;;;;;6264687;28;24428;-74
2024/01/26 13:35:29;;;;;;;95.32;65.30;;;;;;;;;;6267189;28;24431;-74
2024/01/26 13:38:32;;;;;;;93.15;63.97;;;;;;;;;;6267454;28;24471;-74
2024/01/26 13:41:34;;;;;;;87.93;61.03;;;;;;;;;;6297918;28;24440;-75
2024/01/26 13:44:36;;;;;;;83.55;58.17;;;;;;;;;;6267618;28;24428;-75
2024/01/26 13:47:37;;;;;;;85.30;58.38;;;;;;;;;;6268475;28;24495;-74
2024/01/26 13:50:40;;;;;;;84.27;58.77;;;;;;;;;;6268777;28;24563;-74
2024/01/26 13:53:42;;;;;;;82.32;57.58;;;;;;;;;;6264457;28;24424;-74
2024/01/26 13:56:51;;;;;;;78.68;55.25;;;;;;;;;;6297123;28;24420;-79
2024/01/26 13:59:52;;;;;;;76.38;53.72;;;;;;;;;;6265065;28;24407;-79
2024/01/26 14:02:54;;;;;;;78.25;56.30;;;;;;;;;;6268407;28;24902;-78
2024/01/26 14:05:57;;;;;;;82.28;58.92;;;;;;;;;;6264273;28;24819;-78
2024/01/26 14:08:59;;;;;;;81.65;58.58;;;;;;;;;;6267860;28;25163;-79
2024/01/26 14:12:00;;;;;;;80.95;57.58;;;;;;;;;;6290287;28;24434;-78
2024/01/26 14:15:04;;;;;;;81.72;58.17;;;;;;;;;;6266433;28;24820;-78
2024/01/26 14:18:06;;;;;;;80.18;58.00;;;;;;;;;;6264207;28;24431;-79
2024/01/26 14:21:10;;;;;;;83.05;59.95;;;;;;;;;;6264027;28;24479;-79
2024/01/26 14:24:12;;;;;;;85.00;59.80;;;;;;;;;;6264346;28;24893;-77
2024/01/26 14:27:14;;;;;;;80.68;58.00;;;;;;;;;;6268821;28;24464;-78
2024/01/26 14:30:16;;;;;;;78.78;57.08;;;;;;;;;;6268709;28;24621;-78
2024/01/26 14:33:17;;;;;;;85.30;60.63;;;;;;;;;;6270478;28;24438;-78
2024/01/26 14:36:21;;;;;;;89.75;62.28;;;;;;;;;;6267118;28;24550;-77
2024/01/26 14:39:22;;;;;;;82.05;58.92;;;;;;;;;;6266055;28;24426;-77
2024/01/26 14:42:24;;;;;;;87.68;59.83;;;;;;;;;;6266439;28;24435;-77
2024/01/26 14:45:25;;;;;;;89.28;61.53;;;;;;;;;;6265867;28;24455;-77
2024/01/26 14:48:27;;;;;;;80.68;57.08;;;;;;;;;;6264829;28;24863;-78
2024/01/26 14:51:30;;;;;;;79.72;57.20;;;;;;;;;;6266436;28;24481;-78
2024/01/26 14:54:32;;;;;;;80.78;56.70;;;;;;;;;;6268031;28;24560;-78
2024/01/26 14:57:34;;;;;;;80.63;57.43;;;;;;;;;;6268352;28;24454;-77
2024/01/26 15:00:36;;;;;;;79.63;55.55;;;;;;;;;;6266340;28;24896;-78
2024/01/26 15:03:38;;;;;;;80.88;55.58;;;;;;;;;;6269695;28;25143;-78
2024/01/26 15:06:40;;;;;;;79.87;54.73;;;;;;;;;;6267361;28;24511;-78
2024/01/26 15:09:42;;;;;;;75.28;52.95;;;;;;;;;;6263919;28;24723;-77
2024/01/26 15:12:45;;;;;;;82.40;55.10;;;;;;;;;;6266187;28;24424;-78
2024/01/26 15:15:46;;;;;;;85.30;57.28;;;;;;;;;;6266847;28;24435;-77
2024/01/26 15:18:48;;;;;;;76.20;54.27;;;;;;;;;;6263865;28;24431;-79
2024/01/26 15:21:56;;;;;;;76.82;52.80;;;;;;;;;;6267530;28;24431;-77
2024/01/26 15:24:57;;;;;;;77.57;51.75;;;;;;;;;;6263495;28;24429;-78
2024/01/26 15:27:59;;;;;;;77.70;51.70;;;;;;;;;;6263593;28;24825;-78
2024/01/26 15:31:00;;;;;;;92.40;61.17;;;;;;;;;;6300583;28;24526;-78
2024/01/26 15:34:04;;;;;;;124.60;78.90;;;;;;;;;;6264978;28;24423;-79
2024/01/26 15:37:08;;;;;;;240.57;126.93;;;;;;;;;;6263321;28;24988;-79
2024/01/26 15:40:13;;;;;;;139.93;81.50;;;;;;;;;;6266875;28;24436;-79
2024/01/26 15:43:15;;;;;;;129.77;78.97;;;;;;;;;;6267812;28;24630;-79
2024/01/26 15:46:17;;;;;;;137.05;83.15;;;;;;;;;;6265278;28;24451;-79
2024/01/26 15:49:19;;;;;;;150.98;88.88;;;;;;;;;;6269520;28;24866;-78
2024/01/26 15:52:23;;;;;;;117.30;71.33;;;;;;;;;;6266002;28;24415;-79
2024/01/26 15:55:24;;;;;;;93.57;61.33;;;;;;;;;;6260962;28;24526;-79
2024/01/26 15:58:26;;;;;;;83.43;57.10;;;;;;;;;;6261969;28;24426;-78
2024/01/26 16:01:28;;;;;;;84.75;58.00;;;;;;;;;;6262290;28;24423;-78
2024/01/26 16:04:30;;;;;;;81.47;56.85;;;;;;;;;;6260970;28;24789;-79
2024/01/26 16:07:33;;;;;;;81.90;56.75;;;;;;;;;;6263576;28;24457;-79
2024/01/26 16:10:38;;;;;;;82.07;56.85;;;;;;;;;;6263061;28;24415;-79
2024/01/26 16:13:40;;;;;;;85.50;56.80;;;;;;;;;;6268212;28;24867;-80
2024/01/26 16:16:42;;;;;;;88.45;60.80;;;;;;;;;;6263789;28;24598;-74
2024/01/26 16:19:43;;;;;;;85.00;57.95;;;;;;;;;;6263814;28;24496;-75
2024/01/26 16:22:46;;;;;;;90.78;61.95;;;;;;;;;;6268311;28;24420;-74
2024/01/26 16:25:48;;;;;;;85.75;58.13;;;;;;;;;;6267657;28;24455;-75
2024/01/26 16:28:51;;;;;;;90.88;61.85;;;;;;;;;;6270996;28;24412;-74
2024/01/26 16:31:53;;;;;;;88.70;61.22;;;;;;;;;;6267814;28;24824;-75
2024/01/26 16:34:54;;;;;;;86.00;60.25;;;;;;;;;;6269585;28;24422;-75
2024/01/26 16:37:58;;;;;;;88.82;60.42;;;;;;;;;;6268602;28;24446;-74
2024/01/26 16:40:59;;;;;;;91.75;62.20;;;;;;;;;;6268103;28;24411;-74
2024/01/26 16:44:01;;;;;;;91.30;61.08;;;;;;;;;;6266401;28;24426;-75
2024/01/26 16:47:03;;;;;;;87.75;60.70;;;;;;;;;;6266747;28;24919;-74
2024/01/26 16:50:05;;;;;;;91.32;60.53;;;;;;;;;;6261998;28;24470;-74
2024/01/26 16:53:08;;;;;;;89.85;62.08;;;;;;;;;;6268154;28;24422;-74
2024/01/26 16:56:10;;;;;;;91.45;62.10;;;;;;;;;;6269171;28;24478;-74
2024/01/26 16:59:11;;;;;;;89.38;62.42;;;;;;;;;;6268158;28;24449;-74
2024/01/26 17:02:13;;;;;;;88.25;62.30;;;;;;;;;;6268455;28;24426;-74
2024/01/26 17:05:15;;;;;;;91.90;61.60;;;;;;;;;;6266000;28;24426;-74
2024/01/26 17:08:24;;;;;;;96.68;64.35;;;;;;;;;;6276410;28;24462;-74
2024/01/26 17:11:25;;;;;;;96.33;64.10;;;;;;;;;;6266557;28;24498;-74
2024/01/26 17:14:27;;;;;;;97.88;64.35;;;;;;;;;;6283173;28;24465;-73
2024/01/26 17:17:28;;;;;;;94.15;63.63;;;;;;;;;;6268156;28;24450;-73
2024/01/26 17:20:30;;;;;;;93.70;61.23;;;;;;;;;;6269501;28;24420;-73
2024/01/26 17:23:35;;;;;;;88.80;61.00;;;;;;;;;;6264364;28;24527;-73
2024/01/26 17:26:37;;;;;;;89.38;61.17;;;;;;;;;;6263307;28;24837;-73
2024/01/26 17:29:39;;;;;;;95.13;61.80;;;;;;;;;;6265977;28;24503;-72
2024/01/26 17:32:40;;;;;;;93.30;62.07;;;;;;;;;;6260899;28;24438;-72
2024/01/26 17:35:42;;;;;;;88.83;60.70;;;;;;;;;;6263764;28;24599;-74
2024/01/26 17:38:45;;;;;;;89.20;59.40;;;;;;;;;;6264873;28;24422;-73